Time;durP1;ratioP1;P1;durP2;ratioP2;P2;SDS_P1;SDS_P2;PMS_P1;PMS_P2;Temp;Humidity;BMP_temperature;BMP_pressure;BME280_temperature;BME280_humidity;BME280_pressure;Samples;Min_cycle;Max_cycle;Signal;HPM_P1;HPM_P2
2022/07/20 00:00:40;;;;;;;33.38;27.73;;;25.20;59.90;;;;;;5061689;28;20033;-74
2022/07/20 00:03:08;;;;;;;36.70;28.58;;;25.10;60.50;;;;;;5056425;28;20048;-76
2022/07/20 00:05:34;;;;;;;35.05;29.38;;;25.00;61.10;;;;;;5054362;28;20033;-75
2022/07/20 00:08:00;;;;;;;33.83;28.58;;;24.90;61.40;;;;;;5061384;28;20032;-75
2022/07/20 00:13:10;;;;;;;;;;;24.80;62.00;;;;;;5061256;28;20151;-79
2022/07/20 00:15:36;;;;;;;40.22;31.02;;;24.80;62.40;;;;;;5058389;28;20281;-76
2022/07/20 00:18:01;;;;;;;35.33;29.92;;;24.70;62.80;;;;;;5049479;28;20037;-76
2022/07/20 00:20:27;;;;;;;37.30;31.92;;;24.60;63.00;;;;;;5054576;28;20101;-76
2022/07/20 00:22:53;;;;;;;39.70;31.48;;;24.60;63.10;;;;;;5049205;28;20044;-75
2022/07/20 00:25:19;;;;;;;37.63;29.80;;;24.50;63.40;;;;;;5056098;28;20025;-76
2022/07/20 00:27:44;;;;;;;39.83;31.77;;;24.50;63.80;;;;;;5055294;28;20107;-75
2022/07/20 00:30:11;;;;;;;40.22;32.17;;;24.40;63.80;;;;;;5059277;28;20032;-75
2022/07/20 00:32:38;;;;;;;37.28;32.55;;;24.40;64.10;;;;;;5047042;28;20113;-75
2022/07/20 00:35:10;;;;;;;42.58;33.35;;;24.40;64.40;;;;;;5054103;28;20029;-75
2022/07/20 00:37:36;;;;;;;38.42;33.90;;;24.30;64.50;;;;;;5048926;28;20048;-75
2022/07/20 00:40:04;;;;;;;39.47;34.90;;;24.30;64.70;;;;;;5059904;28;20032;-75
2022/07/20 00:42:30;;;;;;;43.22;34.55;;;24.20;64.80;;;;;;5050596;28;20040;-78
2022/07/20 00:44:55;;;;;;;40.17;34.20;;;24.10;65.00;;;;;;5057148;28;20432;-76
2022/07/20 00:47:21;;;;;;;39.40;34.83;;;24.10;65.00;;;;;;5056397;28;20033;-77
2022/07/20 00:49:47;;;;;;;41.13;32.83;;;24.20;64.60;;;;;;5053221;28;20041;-76
2022/07/20 00:52:13;;;;;;;37.95;33.85;;;24.20;64.60;;;;;;5053316;28;20121;-76
2022/07/20 00:54:39;;;;;;;39.35;33.75;;;24.20;64.50;;;;;;5056986;28;20142;-77
2022/07/20 00:57:05;;;;;;;37.65;33.72;;;24.20;64.50;;;;;;5056432;28;20036;-78
2022/07/20 00:59:31;;;;;;;42.42;34.47;;;24.20;64.50;;;;;;5056111;28;20160;-76
2022/07/20 01:01:57;;;;;;;37.60;33.53;;;24.10;64.70;;;;;;5056162;28;20054;-76
2022/07/20 01:04:23;;;;;;;36.97;31.88;;;24.10;64.70;;;;;;5058192;28;20051;-76
2022/07/20 01:06:49;;;;;;;39.45;33.15;;;24.10;64.70;;;;;;5060006;28;20029;-77
2022/07/20 01:09:18;;;;;;;39.75;34.38;;;24.10;64.80;;;;;;5054902;28;20190;-76
2022/07/20 01:11:44;;;;;;;39.17;33.78;;;24.10;64.80;;;;;;5056770;28;20518;-82
2022/07/20 01:14:10;;;;;;;39.65;33.20;;;24.10;64.80;;;;;;5058328;28;20051;-76
2022/07/20 01:16:37;;;;;;;38.40;33.65;;;24.00;65.20;;;;;;5059639;28;20036;-75
2022/07/20 01:19:04;;;;;;;40.33;32.92;;;24.00;65.10;;;;;;5052670;28;20071;-75
2022/07/20 01:21:30;;;;;;;35.85;30.60;;;23.90;64.80;;;;;;5063959;28;20033;-75
2022/07/20 01:23:56;;;;;;;33.33;29.55;;;23.90;64.70;;;;;;5055645;28;20041;-76
2022/07/20 01:26:21;;;;;;;31.88;27.10;;;23.80;64.60;;;;;;5053248;28;20344;-77
2022/07/20 01:28:47;;;;;;;29.92;26.17;;;23.80;64.30;;;;;;5053081;28;20079;-75
2022/07/20 01:31:13;;;;;;;31.40;27.88;;;23.70;64.30;;;;;;5056485;28;20041;-75
2022/07/20 01:33:39;;;;;;;31.15;26.30;;;23.70;64.50;;;;;;5060956;28;20020;-76
2022/07/20 01:36:04;;;;;;;31.90;26.83;;;23.80;64.30;;;;;;5055518;28;20034;-79
2022/07/20 01:38:30;;;;;;;31.02;27.38;;;23.70;64.40;;;;;;5057924;28;20573;-75
2022/07/20 01:40:56;;;;;;;32.92;28.13;;;23.70;64.50;;;;;;5050001;28;20640;-75
2022/07/20 01:43:22;;;;;;;32.08;28.02;;;23.70;64.60;;;;;;5056809;28;20558;-75
2022/07/20 01:45:47;;;;;;;30.10;26.85;;;23.70;64.70;;;;;;5051516;28;20483;-76
2022/07/20 01:48:13;;;;;;;33.67;28.33;;;23.60;64.60;;;;;;5049403;28;20735;-75
2022/07/20 01:50:39;;;;;;;33.05;29.63;;;23.70;64.80;;;;;;5056907;28;20480;-75
2022/07/20 01:53:06;;;;;;;31.95;28.05;;;23.70;64.60;;;;;;5051978;28;20114;-78
2022/07/20 01:55:32;;;;;;;31.40;28.00;;;23.70;64.70;;;;;;5053204;28;20033;-76
2022/07/20 01:57:58;;;;;;;37.95;31.80;;;23.70;64.70;;;;;;5054308;28;20336;-76
2022/07/20 02:00:24;;;;;;;34.83;29.58;;;23.70;65.00;;;;;;5048674;28;20406;-75
2022/07/20 02:02:50;;;;;;;33.60;29.40;;;23.60;65.20;;;;;;5056965;28;20432;-76
2022/07/20 02:05:17;;;;;;;32.50;29.00;;;23.60;65.20;;;;;;5062435;28;20111;-75
2022/07/20 02:07:42;;;;;;;33.90;29.33;;;23.60;65.00;;;;;;5060134;28;20033;-77
2022/07/20 02:10:10;;;;;;;32.38;27.23;;;23.60;65.00;;;;;;5060065;28;20112;-75
2022/07/20 02:12:36;;;;;;;29.58;26.30;;;23.60;64.80;;;;;;5059078;28;20070;-76
2022/07/20 02:15:04;;;;;;;28.50;25.45;;;23.50;65.00;;;;;;5057474;28;20025;-76
2022/07/20 02:17:30;;;;;;;28.15;25.15;;;23.50;65.10;;;;;;5061376;28;20033;-75
2022/07/20 02:19:56;;;;;;;28.20;25.15;;;23.50;64.80;;;;;;5061851;28;20036;-76
2022/07/20 02:22:21;;;;;;;28.60;23.63;;;23.50;64.70;;;;;;5057912;28;20035;-78
2022/07/20 02:24:47;;;;;;;30.90;24.60;;;23.40;64.90;;;;;;5062696;28;20479;-75
2022/07/20 02:27:13;;;;;;;31.30;26.52;;;23.40;65.10;;;;;;5058332;28;20538;-75
2022/07/20 02:29:38;;;;;;;28.00;24.95;;;23.40;65.30;;;;;;5051653;28;20036;-76
2022/07/20 02:32:04;;;;;;;30.80;27.45;;;23.50;65.00;;;;;;5059104;28;20036;-75
2022/07/20 02:34:30;;;;;;;34.90;26.50;;;23.40;65.30;;;;;;5051220;28;20036;-75
2022/07/20 02:36:56;;;;;;;33.10;26.25;;;23.40;65.30;;;;;;5060734;28;20033;-75
2022/07/20 02:39:21;;;;;;;29.48;26.23;;;23.40;65.30;;;;;;5061812;28;20492;-75
2022/07/20 02:41:47;;;;;;;29.80;24.25;;;23.40;65.30;;;;;;5069696;28;20540;-75
2022/07/20 02:44:13;;;;;;;28.75;24.15;;;23.40;65.20;;;;;;5060453;28;20497;-76
2022/07/20 02:46:39;;;;;;;29.13;25.05;;;23.30;65.20;;;;;;5060045;28;20033;-76
2022/07/20 02:49:06;;;;;;;28.15;23.63;;;23.30;65.10;;;;;;5060329;28;20045;-77
2022/07/20 02:51:32;;;;;;;30.90;24.45;;;23.30;65.00;;;;;;5057322;28;20036;-76
2022/07/20 02:53:58;;;;;;;31.92;26.30;;;23.30;65.00;;;;;;5055366;28;20036;-77
2022/07/20 02:56:24;;;;;;;33.25;26.98;;;23.40;65.30;;;;;;5056807;28;20036;-76
2022/07/20 02:58:49;;;;;;;30.30;25.88;;;23.40;65.30;;;;;;5062404;28;20102;-77
2022/07/20 03:01:15;;;;;;;33.42;25.30;;;23.30;65.20;;;;;;5058563;28;21967;-75
2022/07/20 03:03:42;;;;;;;26.65;22.63;;;23.30;65.20;;;;;;5052760;28;20043;-76
2022/07/20 03:06:08;;;;;;;26.65;22.63;;;23.20;65.30;;;;;;5056373;28;20414;-77
2022/07/20 03:08:34;;;;;;;26.20;20.70;;;23.30;65.20;;;;;;5060514;28;20036;-78
2022/07/20 03:10:59;;;;;;;26.90;22.30;;;23.10;65.50;;;;;;5062658;28;20048;-75
2022/07/20 03:13:25;;;;;;;24.55;19.55;;;23.10;65.60;;;;;;5061537;28;20738;-76
2022/07/20 03:15:51;;;;;;;23.85;20.38;;;23.00;65.90;;;;;;5058638;28;20480;-75
2022/07/20 03:18:17;;;;;;;25.30;18.92;;;22.90;66.00;;;;;;5058171;28;20050;-75
2022/07/20 03:20:42;;;;;;;26.33;19.50;;;22.90;65.90;;;;;;5060556;28;20029;-75
2022/07/20 03:23:08;;;;;;;25.33;17.75;;;22.90;66.00;;;;;;5058353;28;20044;-74
2022/07/20 03:25:34;;;;;;;23.83;16.77;;;22.80;66.00;;;;;;5057646;28;20032;-74
2022/07/20 03:27:59;;;;;;;21.50;17.90;;;22.80;65.80;;;;;;5057582;28;20045;-75
2022/07/20 03:30:26;;;;;;;21.00;16.80;;;22.80;65.80;;;;;;5056001;28;20029;-74
2022/07/20 03:32:53;;;;;;;24.60;16.13;;;22.70;65.60;;;;;;5057808;28;20052;-75
2022/07/20 03:35:19;;;;;;;23.35;16.38;;;22.70;65.60;;;;;;5061678;28;20043;-75
2022/07/20 03:37:45;;;;;;;22.48;17.52;;;22.70;65.40;;;;;;5057714;28;20123;-75
2022/07/20 03:40:11;;;;;;;24.23;17.48;;;22.60;65.70;;;;;;5059470;28;20521;-75
2022/07/20 03:42:37;;;;;;;21.42;15.93;;;22.60;65.80;;;;;;5057926;28;20032;-75
2022/07/20 03:45:03;;;;;;;24.95;17.17;;;22.60;65.80;;;;;;5060161;28;21397;-75
2022/07/20 03:47:29;;;;;;;22.50;16.95;;;22.60;65.90;;;;;;5059840;28;20494;-78
2022/07/20 03:49:54;;;;;;;21.85;16.95;;;22.60;65.90;;;;;;5069694;28;20445;-74
2022/07/20 03:52:21;;;;;;;23.38;16.92;;;22.60;66.10;;;;;;5061631;28;20086;-75
2022/07/20 03:54:46;;;;;;;23.50;17.38;;;22.60;65.90;;;;;;5062702;28;20036;-77
2022/07/20 03:57:12;;;;;;;20.70;17.08;;;22.60;65.80;;;;;;5059782;28;20403;-74
2022/07/20 03:59:38;;;;;;;20.27;17.05;;;22.60;65.90;;;;;;5058324;28;20028;-75
2022/07/20 04:02:04;;;;;;;19.65;16.35;;;22.60;65.80;;;;;;5053338;28;20124;-78
2022/07/20 04:04:30;;;;;;;20.30;16.80;;;22.60;65.70;;;;;;5060125;28;20480;-78
2022/07/20 04:06:56;;;;;;;21.25;17.90;;;22.60;66.00;;;;;;5058998;28;20032;-77
2022/07/20 04:12:07;;;;;;;;;;;22.60;65.90;;;;;;5059222;28;20059;-76
2022/07/20 04:14:33;;;;;;;21.02;16.33;;;22.60;66.20;;;;;;5056290;28;20299;-76
2022/07/20 04:16:59;;;;;;;19.00;16.33;;;22.60;66.00;;;;;;5059168;28;20360;-76
2022/07/20 04:19:25;;;;;;;22.60;16.52;;;22.60;65.90;;;;;;5058087;28;20056;-78
2022/07/20 04:21:56;;;;;;;19.83;16.98;;;22.70;65.80;;;;;;5058166;28;20032;-78
2022/07/20 04:24:23;;;;;;;24.02;17.75;;;22.70;65.90;;;;;;5055180;28;20037;-75
2022/07/20 04:26:48;;;;;;;24.45;18.60;;;22.70;65.70;;;;;;5053604;28;20047;-76
2022/07/20 04:29:14;;;;;;;25.70;17.45;;;22.70;65.90;;;;;;5058249;28;20040;-75
2022/07/20 04:31:40;;;;;;;27.27;17.63;;;22.70;65.70;;;;;;5059061;28;20594;-75
2022/07/20 04:34:06;;;;;;;21.85;16.50;;;22.70;65.80;;;;;;5058178;28;20040;-77
2022/07/20 04:36:31;;;;;;;21.20;16.85;;;22.80;65.70;;;;;;5062522;28;20037;-75
2022/07/20 04:38:57;;;;;;;25.10;18.15;;;22.80;66.00;;;;;;5058968;28;20044;-77
2022/07/20 04:41:23;;;;;;;23.80;17.05;;;22.70;66.30;;;;;;5052536;28;20040;-76
2022/07/20 04:43:49;;;;;;;22.15;17.20;;;22.80;66.30;;;;;;5060146;28;20413;-77
2022/07/20 04:46:14;;;;;;;23.63;18.38;;;22.90;66.10;;;;;;5057587;28;20044;-76
2022/07/20 04:48:40;;;;;;;24.38;18.70;;;22.80;66.10;;;;;;5059495;28;20547;-75
2022/07/20 04:51:05;;;;;;;24.90;19.08;;;22.80;65.90;;;;;;5054883;28;20567;-78
2022/07/20 04:53:31;;;;;;;25.63;18.75;;;22.80;66.20;;;;;;5056049;28;20136;-75
2022/07/20 04:55:57;;;;;;;26.58;18.40;;;22.70;66.60;;;;;;5054783;28;20453;-77
2022/07/20 04:58:22;;;;;;;25.08;18.90;;;22.70;66.50;;;;;;5056463;28;20052;-75
2022/07/20 05:00:48;;;;;;;24.15;18.92;;;22.70;66.80;;;;;;5060897;28;20302;-75
2022/07/20 05:03:14;;;;;;;26.30;19.40;;;22.70;67.10;;;;;;5054199;28;20058;-77
2022/07/20 05:05:39;;;;;;;26.50;19.98;;;22.70;67.40;;;;;;5054604;28;20436;-75
2022/07/20 05:08:05;;;;;;;24.85;19.45;;;22.80;67.30;;;;;;5057584;28;20040;-77
2022/07/20 05:10:31;;;;;;;26.35;19.40;;;22.80;67.40;;;;;;5061501;28;20040;-78
2022/07/20 05:12:56;;;;;;;21.10;18.85;;;22.80;67.30;;;;;;5057225;28;20052;-76
2022/07/20 05:15:25;;;;;;;25.83;19.52;;;23.00;66.60;;;;;;5056038;28;20130;-75
2022/07/20 05:17:51;;;;;;;27.13;19.92;;;23.10;65.70;;;;;;5065195;28;20040;-76
2022/07/20 05:20:17;;;;;;;27.73;19.42;;;23.20;65.70;;;;;;5059646;28;20037;-75
2022/07/20 05:22:43;;;;;;;23.08;18.80;;;23.10;65.70;;;;;;5060138;28;20044;-75
2022/07/20 05:25:09;;;;;;;25.73;18.52;;;23.10;65.40;;;;;;5060583;28;20040;-75
2022/07/20 05:27:34;;;;;;;27.08;18.40;;;23.20;65.40;;;;;;5059981;28;20327;-75
2022/07/20 05:30:00;;;;;;;21.45;17.15;;;23.00;65.20;;;;;;5053935;28;20079;-78
2022/07/20 05:32:26;;;;;;;23.38;17.60;;;22.90;65.60;;;;;;5056876;28;20036;-76
2022/07/20 05:34:52;;;;;;;22.92;16.92;;;22.90;65.30;;;;;;5056973;28;20055;-75
2022/07/20 05:37:17;;;;;;;20.20;15.95;;;22.90;65.30;;;;;;5056209;28;20033;-75
2022/07/20 05:39:43;;;;;;;20.73;15.95;;;22.90;65.30;;;;;;5058213;28;20499;-77
2022/07/20 05:42:08;;;;;;;20.60;15.10;;;22.80;65.20;;;;;;5050883;28;20546;-79
2022/07/20 05:44:34;;;;;;;19.45;14.88;;;22.80;65.10;;;;;;5054723;28;20071;-76
2022/07/20 05:47:00;;;;;;;19.58;14.60;;;22.70;64.70;;;;;;5061303;28;20146;-75
2022/07/20 05:49:26;;;;;;;20.52;15.23;;;22.60;65.00;;;;;;5063473;28;20488;-78
2022/07/20 05:51:52;;;;;;;18.50;13.13;;;22.70;65.30;;;;;;5054407;28;20036;-78
2022/07/20 05:54:17;;;;;;;18.38;13.10;;;22.70;65.20;;;;;;5049467;28;20098;-75
2022/07/20 05:56:43;;;;;;;19.85;13.63;;;22.70;64.40;;;;;;5058323;28;20129;-76
2022/07/20 05:59:09;;;;;;;18.13;12.25;;;22.70;63.90;;;;;;5064503;28;20415;-75
2022/07/20 06:01:34;;;;;;;17.20;12.73;;;22.70;63.80;;;;;;5060097;28;20475;-76
2022/07/20 06:04:00;;;;;;;19.52;11.52;;;22.70;63.30;;;;;;5059485;28;20115;-75
2022/07/20 06:06:26;;;;;;;17.50;11.18;;;22.80;62.70;;;;;;5057355;28;20042;-81
2022/07/20 06:08:51;;;;;;;16.38;10.27;;;22.80;62.10;;;;;;5054372;28;20044;-79
2022/07/20 06:11:17;;;;;;;15.02;9.77;;;22.70;61.90;;;;;;5052762;28;20509;-75
2022/07/20 06:13:42;;;;;;;19.27;10.52;;;22.60;62.60;;;;;;5051388;28;20028;-75
2022/07/20 06:16:08;;;;;;;16.83;10.45;;;22.60;63.50;;;;;;5060514;28;20041;-76
2022/07/20 06:18:34;;;;;;;14.20;10.25;;;22.60;64.60;;;;;;5057716;28;20101;-78
2022/07/20 06:21:00;;;;;;;16.55;10.05;;;22.60;66.70;;;;;;5057592;28;20097;-76
2022/07/20 06:23:25;;;;;;;12.55;9.35;;;22.40;66.40;;;;;;5054782;28;20815;-76
2022/07/20 06:25:51;;;;;;;15.55;11.10;;;22.10;67.50;;;;;;5056638;28;20025;-76
2022/07/20 06:28:17;;;;;;;16.35;9.90;;;22.10;67.90;;;;;;5054145;28;20055;-77
2022/07/20 06:30:42;;;;;;;14.55;10.05;;;22.10;68.70;;;;;;5062878;28;20043;-76
2022/07/20 06:33:08;;;;;;;14.68;9.80;;;22.00;67.90;;;;;;5060730;28;20048;-76
2022/07/20 06:35:34;;;;;;;16.02;10.20;;;21.90;68.40;;;;;;5059245;28;20055;-75
2022/07/20 06:38:00;;;;;;;20.83;10.80;;;22.00;68.70;;;;;;5060911;28;20040;-72
2022/07/20 06:40:25;;;;;;;16.33;10.80;;;22.00;68.10;;;;;;5056957;28;20051;-72
2022/07/20 06:42:51;;;;;;;15.40;10.48;;;22.10;69.10;;;;;;5053962;28;20039;-84
2022/07/20 06:45:17;;;;;;;16.67;10.82;;;22.10;68.80;;;;;;5055109;28;20135;-84
2022/07/20 06:47:42;;;;;;;14.38;10.60;;;22.10;68.70;;;;;;5058200;28;20518;-84
2022/07/20 06:50:08;;;;;;;15.25;10.82;;;22.20;68.60;;;;;;5064622;28;20043;-84
2022/07/20 06:52:34;;;;;;;14.73;10.05;;;22.20;68.60;;;;;;5066481;28;20044;-83
2022/07/20 06:55:01;;;;;;;15.65;11.02;;;22.20;68.70;;;;;;5068194;28;20056;-84
2022/07/20 06:57:26;;;;;;;18.88;11.05;;;22.10;69.80;;;;;;5058068;28;20037;-84
2022/07/20 06:59:52;;;;;;;14.20;10.93;;;22.30;69.60;;;;;;5067076;28;20529;-84
2022/07/20 07:02:18;;;;;;;14.13;10.15;;;22.30;69.70;;;;;;5067027;28;20092;-85
2022/07/20 07:04:44;;;;;;;14.95;11.13;;;22.30;69.60;;;;;;5062291;28;20037;-84
2022/07/20 07:07:09;;;;;;;15.55;10.90;;;22.40;69.90;;;;;;5060014;28;20408;-84
2022/07/20 07:09:35;;;;;;;14.82;10.45;;;22.30;69.10;;;;;;5066842;28;20051;-83
2022/07/20 07:12:01;;;;;;;15.38;10.65;;;22.30;69.40;;;;;;5063302;28;20120;-83
2022/07/20 07:14:26;;;;;;;15.10;10.10;;;22.30;68.90;;;;;;5062442;28;20560;-83
2022/07/20 07:16:53;;;;;;;15.40;9.82;;;22.30;68.90;;;;;;5063128;28;20076;-83
2022/07/20 07:19:19;;;;;;;15.68;9.95;;;22.60;68.50;;;;;;5056549;28;20121;-84
2022/07/20 07:21:45;;;;;;;12.90;8.73;;;22.60;67.50;;;;;;5063974;28;20028;-86
2022/07/20 07:24:11;;;;;;;13.38;8.02;;;22.60;66.50;;;;;;5055869;28;20036;-85
2022/07/20 07:26:36;;;;;;;14.95;9.07;;;22.60;66.50;;;;;;5065544;28;20036;-86
2022/07/20 07:29:03;;;;;;;16.65;9.35;;;22.90;66.60;;;;;;5059659;28;20086;-85
2022/07/20 07:31:28;;;;;;;14.85;8.75;;;23.10;65.50;;;;;;5058064;28;20559;-85
2022/07/20 07:33:54;;;;;;;12.07;8.88;;;23.30;64.50;;;;;;5059664;28;20032;-88
2022/07/20 07:36:22;;;;;;;14.95;8.75;;;23.40;64.40;;;;;;5065025;28;20552;-87
2022/07/20 07:38:47;;;;;;;12.63;8.07;;;23.50;63.80;;;;;;5060875;28;20040;-86
2022/07/20 07:41:13;;;;;;;10.85;7.78;;;23.50;64.00;;;;;;5058750;28;20432;-86
2022/07/20 07:43:39;;;;;;;12.02;8.15;;;23.50;63.90;;;;;;5051354;28;20029;-86
2022/07/20 07:46:05;;;;;;;13.23;8.02;;;23.60;62.80;;;;;;5059495;28;20589;-85
2022/07/20 07:48:31;;;;;;;10.60;7.97;;;23.70;62.60;;;;;;5057334;28;20670;-84
2022/07/20 07:50:56;;;;;;;15.20;8.18;;;23.90;62.90;;;;;;5061497;28;20039;-84
2022/07/20 07:53:22;;;;;;;12.75;8.23;;;24.00;62.70;;;;;;5059362;28;20033;-84
2022/07/20 07:55:48;;;;;;;14.82;8.48;;;24.00;62.90;;;;;;5063470;28;20499;-84
2022/07/20 07:58:14;;;;;;;13.18;8.65;;;23.80;62.80;;;;;;5058350;28;20468;-84
2022/07/20 08:00:40;;;;;;;12.90;9.05;;;23.70;63.50;;;;;;5058373;28;20037;-85
2022/07/20 08:03:07;;;;;;;13.48;8.05;;;23.60;63.60;;;;;;5064836;28;20036;-83
2022/07/20 08:05:33;;;;;;;12.35;8.32;;;23.60;64.00;;;;;;5059642;28;20048;-80
2022/07/20 08:08:05;;;;;;;15.30;8.75;;;23.50;64.30;;;;;;5056957;28;20550;-79
2022/07/20 08:10:31;;;;;;;13.02;9.43;;;23.30;65.00;;;;;;5058287;28;20377;-79
2022/07/20 08:12:57;;;;;;;15.82;9.50;;;23.20;65.20;;;;;;5058083;28;20097;-81
2022/07/20 08:15:23;;;;;;;17.52;9.50;;;22.90;66.30;;;;;;5059888;28;20036;-81
2022/07/20 08:17:48;;;;;;;14.02;9.30;;;22.70;66.80;;;;;;5054399;28;20035;-83
2022/07/20 08:20:14;;;;;;;14.15;9.27;;;22.80;67.10;;;;;;5050062;28;20084;-80
2022/07/20 08:22:40;;;;;;;15.55;9.82;;;22.90;67.00;;;;;;5062110;28;20709;-83
2022/07/20 08:25:06;;;;;;;15.90;10.18;;;23.00;66.20;;;;;;5057497;28;20553;-81
2022/07/20 08:27:31;;;;;;;16.15;9.52;;;23.20;66.00;;;;;;5058996;28;20030;-85
2022/07/20 08:30:00;;;;;;;14.80;9.80;;;23.20;65.80;;;;;;5058386;28;20036;-83
2022/07/20 08:32:26;;;;;;;17.80;10.70;;;23.30;66.00;;;;;;5063406;28;20040;-83
2022/07/20 08:34:52;;;;;;;16.52;9.30;;;23.30;65.60;;;;;;5061090;28;20032;-83
2022/07/20 08:37:18;;;;;;;14.20;9.82;;;23.20;65.80;;;;;;5058296;28;20110;-78
2022/07/20 08:39:44;;;;;;;14.75;10.02;;;23.10;66.40;;;;;;5060079;28;20534;-86
2022/07/20 08:42:11;;;;;;;19.88;9.68;;;22.90;67.60;;;;;;5059333;28;20062;-87
2022/07/20 08:44:39;;;;;;;15.27;9.57;;;22.90;68.40;;;;;;5059970;28;20044;-86
2022/07/20 08:47:05;;;;;;;14.63;9.95;;;22.70;70.20;;;;;;5059683;28;20638;-86
2022/07/20 08:49:32;;;;;;;15.55;9.88;;;22.70;70.70;;;;;;5057004;28;20033;-83
2022/07/20 08:51:58;;;;;;;15.43;9.63;;;22.70;70.70;;;;;;5060968;28;20048;-85
2022/07/20 08:54:25;;;;;;;15.38;10.23;;;22.60;71.00;;;;;;5069581;28;20033;-83
2022/07/20 08:56:51;;;;;;;17.73;11.40;;;22.40;72.00;;;;;;5068184;28;20032;-86
2022/07/20 08:59:17;;;;;;;17.20;10.50;;;22.20;73.50;;;;;;5060993;28;20045;-86
2022/07/20 09:02:00;;;;;;;16.25;11.18;;;22.40;74.20;;;;;;5065045;28;20539;-86
2022/07/20 09:04:26;;;;;;;17.80;10.88;;;22.40;74.50;;;;;;5054856;28;20037;-80
2022/07/20 09:06:52;;;;;;;18.17;12.25;;;22.30;74.40;;;;;;5062847;28;20024;-81
2022/07/20 09:09:19;;;;;;;17.17;11.25;;;22.50;74.30;;;;;;5059862;28;20056;-85
2022/07/20 09:11:46;;;;;;;17.33;12.30;;;22.50;75.20;;;;;;5068765;28;20035;-81
2022/07/20 09:14:12;;;;;;;19.20;12.43;;;22.60;74.70;;;;;;5062601;28;20024;-80
2022/07/20 09:16:46;;;;;;;16.33;12.52;;;22.60;75.00;;;;;;5065914;28;20071;-78
2022/07/20 09:19:13;;;;;;;22.17;13.80;;;22.60;74.70;;;;;;5060830;28;20055;-80
2022/07/20 09:21:40;;;;;;;21.95;13.52;;;22.60;76.40;;;;;;5060692;28;20036;-80
2022/07/20 09:24:08;;;;;;;19.05;13.80;;;22.60;75.60;;;;;;5059203;28;20049;-80
2022/07/20 09:26:35;;;;;;;19.50;13.77;;;22.60;76.20;;;;;;5056442;28;20039;-85
2022/07/20 09:29:04;;;;;;;18.50;13.70;;;22.50;76.20;;;;;;5063920;28;20127;-86
2022/07/20 09:31:37;;;;;;;20.08;14.65;;;22.60;75.90;;;;;;5071580;28;20487;-82
2022/07/20 09:34:06;;;;;;;16.30;13.38;;;22.40;76.70;;;;;;5054690;28;20148;-82
2022/07/20 09:36:35;;;;;;;20.33;14.93;;;22.40;76.40;;;;;;5059693;28;20115;-83
2022/07/20 09:39:21;;;;;;;21.95;16.05;;;22.50;75.80;;;;;;5061842;28;20118;-83
2022/07/20 09:41:56;;;;;;;19.38;13.93;;;22.60;75.90;;;;;;5070202;28;20063;-83
2022/07/20 09:44:26;;;;;;;20.00;15.20;;;22.90;74.90;;;;;;5064916;28;20036;-82
2022/07/20 09:46:52;;;;;;;19.35;14.95;;;23.10;74.20;;;;;;5064727;28;20029;-83
2022/07/20 09:49:18;;;;;;;17.83;14.50;;;23.50;73.80;;;;;;5053483;28;20332;-79
2022/07/20 09:51:46;;;;;;;17.92;14.13;;;23.80;72.60;;;;;;5058316;28;20037;-80
2022/07/20 09:54:18;;;;;;;20.60;14.55;;;23.90;71.60;;;;;;5053755;28;20523;-81
2022/07/20 09:56:47;;;;;;;18.95;13.73;;;24.10;71.40;;;;;;5056078;28;20044;-81
2022/07/20 09:59:13;;;;;;;17.52;13.95;;;24.20;70.10;;;;;;5059540;28;20068;-78
2022/07/20 10:01:53;;;;;;;18.52;14.43;;;24.60;69.00;;;;;;5056900;28;20546;-81
2022/07/20 10:04:23;;;;;;;17.52;12.95;;;25.00;68.30;;;;;;5058075;28;20373;-82
2022/07/20 10:06:51;;;;;;;19.02;12.93;;;25.50;67.50;;;;;;5056891;28;20646;-84
2022/07/20 10:09:17;;;;;;;18.80;14.27;;;25.90;66.50;;;;;;5061229;28;20063;-86
2022/07/20 10:11:47;;;;;;;17.63;13.95;;;26.10;63.40;;;;;;5058028;28;20266;-80
2022/07/20 10:14:17;;;;;;;17.70;12.98;;;26.00;63.90;;;;;;5060891;28;20468;-79
2022/07/20 10:16:49;;;;;;;15.25;12.90;;;26.10;62.90;;;;;;5063756;28;20127;-79
2022/07/20 10:19:15;;;;;;;22.30;12.98;;;25.90;62.30;;;;;;5060831;28;20448;-81
2022/07/20 10:21:52;;;;;;;20.70;13.90;;;25.80;62.60;;;;;;5059429;28;20395;-81
2022/07/20 10:24:30;;;;;;;19.00;13.23;;;25.80;62.40;;;;;;5058350;28;20515;-79
2022/07/20 10:27:05;;;;;;;15.65;12.73;;;25.60;62.70;;;;;;5058988;28;20494;-79
2022/07/20 10:29:45;;;;;;;18.25;12.35;;;25.50;62.50;;;;;;5072014;28;20093;-80
2022/07/20 10:32:11;;;;;;;19.15;12.85;;;25.20;62.70;;;;;;5064788;28;20064;-80
2022/07/20 10:34:44;;;;;;;18.20;11.63;;;25.00;62.70;;;;;;5063887;28;20041;-82
2022/07/20 10:37:31;;;;;;;19.10;12.93;;;25.10;63.20;;;;;;5070777;28;20037;-83
2022/07/20 10:40:09;;;;;;;19.85;12.70;;;25.20;62.40;;;;;;5063484;28;20131;-83
2022/07/20 10:42:37;;;;;;;16.52;11.35;;;25.40;62.10;;;;;;5061318;28;20135;-80
2022/07/20 10:45:23;;;;;;;16.27;12.90;;;25.70;61.30;;;;;;5064312;28;20471;-80
2022/07/20 10:48:01;;;;;;;19.33;14.27;;;25.70;60.70;;;;;;5061072;28;20336;-81
2022/07/20 10:50:38;;;;;;;15.52;11.80;;;25.60;60.50;;;;;;5063888;28;20044;-79
2022/07/20 10:53:10;;;;;;;18.42;12.90;;;25.60;60.60;;;;;;5060731;28;20049;-86
2022/07/20 10:55:36;;;;;;;19.05;12.95;;;25.50;61.80;;;;;;5061102;28;20372;-79
2022/07/20 10:58:07;;;;;;;20.38;14.73;;;25.30;61.50;;;;;;5062679;28;20312;-80
2022/07/20 11:00:37;;;;;;;18.15;13.88;;;25.10;61.60;;;;;;5068847;28;20420;-83
2022/07/20 11:03:14;;;;;;;16.05;12.85;;;25.20;61.70;;;;;;5062374;28;20094;-81
2022/07/20 11:05:41;;;;;;;18.02;14.48;;;25.20;61.50;;;;;;5064113;28;20188;-82
2022/07/20 11:08:09;;;;;;;20.75;15.07;;;25.10;61.80;;;;;;5062614;28;20051;-81
2022/07/20 11:10:36;;;;;;;19.15;14.55;;;24.90;62.80;;;;;;5059608;28;20086;-82
2022/07/20 11:13:09;;;;;;;18.02;14.90;;;24.90;62.60;;;;;;5061444;28;20541;-80
2022/07/20 11:15:48;;;;;;;23.33;15.85;;;24.90;63.20;;;;;;5063143;28;20475;-78
2022/07/20 11:18:16;;;;;;;20.92;16.70;;;25.00;63.30;;;;;;5061206;28;20040;-78
2022/07/20 11:20:52;;;;;;;18.70;15.38;;;25.50;62.10;;;;;;5059212;28;20439;-79
2022/07/20 11:23:23;;;;;;;18.88;15.45;;;25.80;60.70;;;;;;5062298;28;20032;-78
2022/07/20 11:25:58;;;;;;;21.00;15.32;;;26.00;60.80;;;;;;5061086;28;20495;-77
2022/07/20 11:28:31;;;;;;;18.85;16.00;;;26.80;58.80;;;;;;5058733;28;20535;-79
2022/07/20 11:30:58;;;;;;;20.45;16.05;;;27.30;56.60;;;;;;5061075;28;20036;-78
2022/07/20 11:33:30;;;;;;;17.55;15.00;;;27.20;55.90;;;;;;5061757;28;20052;-78
2022/07/20 11:36:02;;;;;;;18.50;15.10;;;27.10;56.90;;;;;;5061692;28;20036;-79
2022/07/20 11:38:52;;;;;;;21.75;14.98;;;27.50;55.50;;;;;;5059320;28;20503;-79
2022/07/20 11:41:24;;;;;;;16.92;13.90;;;27.80;54.50;;;;;;5062963;28;20037;-78
2022/07/20 11:43:51;;;;;;;19.52;14.30;;;28.00;54.70;;;;;;5056535;28;20524;-77
2022/07/20 11:46:35;;;;;;;18.25;14.10;;;28.00;53.50;;;;;;5058632;28;20036;-77
2022/07/20 11:49:04;;;;;;;23.13;14.82;;;28.20;53.10;;;;;;5059372;28;20037;-77
2022/07/20 11:51:31;;;;;;;18.08;15.05;;;28.00;53.80;;;;;;5080196;28;20039;-73
2022/07/20 11:53:58;;;;;;;17.48;13.50;;;27.60;53.90;;;;;;5057973;28;20537;-72
2022/07/20 11:56:27;;;;;;;17.45;14.30;;;27.50;55.00;;;;;;5024012;28;20036;-72
2022/07/20 11:58:55;;;;;;;16.63;12.95;;;27.30;54.90;;;;;;5048367;28;20090;-73
2022/07/20 12:01:29;;;;;;;21.13;15.05;;;27.60;55.40;;;;;;5047997;28;20040;-73
2022/07/20 12:04:03;;;;;;;17.63;13.13;;;27.80;54.10;;;;;;5052502;28;20036;-74
2022/07/20 12:06:32;;;;;;;22.42;14.98;;;28.10;53.30;;;;;;5048231;28;20084;-75
2022/07/20 12:09:16;;;;;;;17.08;14.23;;;27.90;53.30;;;;;;5051558;28;20465;-76
2022/07/20 12:12:44;;;;;;;20.58;14.85;;;27.70;54.10;;;;;;5047832;28;20558;-76
2022/07/20 12:14:56;;;;;;;18.65;14.55;;;27.50;54.70;;;;;;5054138;28;20134;-75
2022/07/20 12:17:25;;;;;;;19.33;14.55;;;27.40;55.10;;;;;;5050526;28;20444;-75
2022/07/20 12:19:54;;;;;;;20.40;15.70;;;27.00;55.90;;;;;;5052523;28;20591;-73
2022/07/20 12:22:23;;;;;;;22.63;15.93;;;26.90;57.00;;;;;;5046263;28;20492;-76
2022/07/20 12:25:00;;;;;;;20.48;15.27;;;26.80;57.30;;;;;;5046955;28;20766;-76
2022/07/20 12:27:33;;;;;;;22.00;15.75;;;26.80;57.60;;;;;;5061832;28;20060;-75
2022/07/20 12:30:00;;;;;;;20.90;16.52;;;27.00;57.10;;;;;;5052611;28;20277;-74
2022/07/20 12:32:33;;;;;;;21.10;16.50;;;27.10;57.20;;;;;;5047975;28;20028;-74
2022/07/20 12:35:01;;;;;;;22.65;17.10;;;27.30;56.60;;;;;;5045360;28;20467;-76